Decoded Metar for KALI (ALICE in TX, USA) (IATA:ALI) | Meteo·Mobile Aviation Weather
aviador You're here:

KALI Decoded Metar

ALICE in TX, USA
Report Time2019-01-19 05:53:00
UTC Time2019-01-19 06:27:42
Flight Rules vfr VFR
Wind200° at 12 kt
W.Decomp.*RWY 17: 11.0 kt HW 4.9 kt RCW
RWY 13: 5.3 kt HW 10.8 kt RCW
W.Rank200° ranks 24
Current wind is above 200° avg. (7.6)
Visibility9999 m
Phenomena:N/A
Clouds:N/A
Expected CloudBase > 400 ft AGL from Temp-Dew spread
CeilingNone
Temp19°C (ISA +4)
Dew Point18°C (94% RH)
AAT17.5°C
QNH1008 hPa
Density Alt1,125 ft
Elevation174 ft
Report Wrong Elevation
Raw Report
KALI 190553Z AUTO 20012KT 8SM CLR 19/18 A2978 RMK AO2 SLP083
T01940178 10211 20178 402220167 53006=

Extra information for KALI:More info

Metar Taf Metar & Taf Last 4 Metars F.Rules Stats Wind Profile Meteogram Temp Stats Airport Information Weather charts Add Link Nearby VenuesMetar ALERT Operation Metar Decoded Social comments

AIRNAV info for KALI